createdAt,value
2023-04-16T00:00:46.377Z,97227.75
2023-04-16T00:03:13.213Z,97225.56
2023-04-16T00:05:40.091Z,97225.06
2023-04-16T00:08:07.099Z,97230.66
2023-04-16T00:10:35.005Z,97228.28
2023-04-16T00:13:01.657Z,97233.16
2023-04-16T00:15:28.288Z,97242.72
2023-04-16T00:17:54.911Z,97248.94
2023-04-16T00:20:21.565Z,97240.31
2023-04-16T00:22:48.373Z,97236.69
2023-04-16T00:25:15.049Z,97234.81
2023-04-16T00:27:41.675Z,97237.41
2023-04-16T00:30:08.654Z,97237.94
2023-04-16T00:32:35.696Z,97233.47
2023-04-16T00:35:02.507Z,97232.81
2023-04-16T00:37:30.360Z,97239.06
2023-04-16T00:39:56.922Z,97238.97
2023-04-16T00:42:23.588Z,97246.13
2023-04-16T00:44:50.210Z,97233.06
2023-04-16T00:47:16.892Z,97238.97
2023-04-16T00:49:43.520Z,97238.97
2023-04-16T00:52:11.904Z,97244.78
2023-04-16T00:54:39.519Z,97242.72
2023-04-16T00:57:06.470Z,97246.88
2023-04-16T00:59:33.128Z,97248.94
2023-04-16T01:01:59.732Z,97247.69
2023-04-16T01:04:26.570Z,97248.09
2023-04-16T01:06:53.573Z,97252.28
2023-04-16T01:09:20.268Z,97248.53
2023-04-16T01:11:46.878Z,97248.22
2023-04-16T01:14:13.489Z,97245.00
2023-04-16T01:16:40.075Z,97251.03
2023-04-16T01:19:06.757Z,97260.72
2023-04-16T01:21:33.328Z,97261.31
2023-04-16T01:24:04.634Z,97260.59
2023-04-16T01:26:31.638Z,97266.91
2023-04-16T01:28:59.473Z,97271.63
2023-04-16T01:31:27.171Z,97269.13
2023-04-16T01:34:06.799Z,97271.31
2023-04-16T01:36:34.777Z,97273.69
2023-04-16T01:39:01.385Z,97264.94
2023-04-16T01:41:27.993Z,97274.50
2023-04-16T01:43:54.576Z,97277.53
2023-04-16T01:46:27.662Z,97274.94
2023-04-16T01:48:54.832Z,97279.31
2023-04-16T01:51:22.097Z,97280.44
2023-04-16T01:53:49.893Z,97281.19
2023-04-16T01:56:16.902Z,97277.75
2023-04-16T01:58:43.640Z,97287.41
2023-04-16T02:01:10.365Z,97277.84
2023-04-16T02:03:38.401Z,97284.50
2023-04-16T02:06:05.548Z,97285.09
2023-04-16T02:08:32.597Z,97279.22
2023-04-16T02:10:59.615Z,97285.34
2023-04-16T02:13:26.566Z,97282.00
2023-04-16T02:15:53.396Z,97282.94
2023-04-16T02:18:43.111Z,97283.88
2023-04-16T02:21:11.115Z,97290.94
2023-04-16T02:23:41.068Z,97281.69
2023-04-16T02:26:07.797Z,97281.69
2023-04-16T02:28:34.453Z,97287.41
2023-04-16T02:31:01.302Z,97298.53
2023-04-16T02:33:33.191Z,97297.59
2023-04-16T02:36:03.022Z,97292.50
2023-04-16T02:38:29.740Z,97288.13
2023-04-16T02:40:56.388Z,97294.19
2023-04-16T02:43:23.030Z,97292.59
2023-04-16T02:45:49.680Z,97302.16
2023-04-16T02:48:16.389Z,97306.44
2023-04-16T02:50:42.990Z,97306.53
2023-04-16T02:53:10.723Z,97304.75
2023-04-16T02:55:37.366Z,97302.91
2023-04-16T02:58:03.991Z,97302.97
2023-04-16T03:00:30.646Z,97301.34
2023-04-16T03:02:57.534Z,97303.84
2023-04-16T03:05:24.528Z,97300.59
2023-04-16T03:07:56.457Z,97297.59
2023-04-16T03:10:24.060Z,97298.94
2023-04-16T03:12:50.929Z,97301.13
2023-04-16T03:15:17.715Z,97297.47
2023-04-16T03:17:44.537Z,97304.03
2023-04-16T03:20:11.541Z,97304.13
2023-04-16T03:22:40.974Z,97307.34
2023-04-16T03:25:08.159Z,97307.22
2023-04-16T03:27:35.405Z,97309.84
2023-04-16T03:30:02.373Z,97315.03
2023-04-16T03:32:30.329Z,97319.41
2023-04-16T03:34:57.239Z,97322.63
2023-04-16T03:37:24.242Z,97323.75
2023-04-16T03:39:51.200Z,97335.63
2023-04-16T03:42:17.856Z,97339.13
2023-04-16T03:44:44.622Z,97332.72
2023-04-16T03:47:11.692Z,97330.22
2023-04-16T03:49:38.300Z,97327.09
2023-04-16T03:52:06.044Z,97325.25
2023-04-16T03:54:32.680Z,97338.00
2023-04-16T03:57:11.341Z,97331.34
2023-04-16T03:59:38.318Z,97337.59
2023-04-16T04:02:05.054Z,97343.19
2023-04-16T04:04:32.022Z,97345.88
2023-04-16T04:06:58.714Z,97343.59
2023-04-16T04:09:26.892Z,97338.31
2023-04-16T04:11:53.594Z,97344.41
2023-04-16T04:14:20.167Z,97354.50
2023-04-16T04:16:46.829Z,97353.03
2023-04-16T04:19:14.603Z,97349.69
2023-04-16T04:21:41.263Z,97347.75
2023-04-16T04:24:08.818Z,97350.34
2023-04-16T04:26:35.472Z,97354.50
2023-04-16T04:29:02.109Z,97351.16
2023-04-16T04:31:30.360Z,97351.81
2023-04-16T04:33:56.950Z,97355.75
2023-04-16T04:36:23.899Z,97364.94
2023-04-16T04:38:51.272Z,97365.66
2023-04-16T04:41:19.618Z,97367.13
2023-04-16T04:43:47.304Z,97368.88
2023-04-16T04:46:13.996Z,97368.69
2023-04-16T04:48:41.170Z,97364.13
2023-04-16T04:51:07.914Z,97377.84
2023-04-16T04:53:34.716Z,97372.22
2023-04-16T04:56:09.275Z,97379.53
2023-04-16T04:58:38.863Z,97377.69
2023-04-16T05:01:05.950Z,97391.06
2023-04-16T05:03:32.716Z,97396.38
2023-04-16T05:05:59.728Z,97389.09
2023-04-16T05:08:26.321Z,97387.06
2023-04-16T05:10:52.956Z,97392.03
2023-04-16T05:13:19.619Z,97401.50
2023-04-16T05:15:46.359Z,97397.13
2023-04-16T05:18:12.910Z,97400.16
2023-04-16T05:20:39.485Z,97407.63
2023-04-16T05:23:06.100Z,97415.72
2023-04-16T05:25:32.718Z,97417.84
2023-04-16T05:27:59.288Z,97411.88
2023-04-16T05:30:25.895Z,97423.19
2023-04-16T05:32:52.739Z,97427.25
2023-04-16T05:35:19.384Z,97419.44
2023-04-16T05:37:45.965Z,97422.53
2023-04-16T05:40:13.957Z,97422.94
2023-04-16T05:42:40.930Z,97424.50
2023-04-16T05:45:08.052Z,97435.91
2023-04-16T05:47:34.666Z,97422.19
2023-04-16T05:50:01.270Z,97425.28
2023-04-16T05:52:27.920Z,97425.44
2023-04-16T05:54:54.525Z,97436.41
2023-04-16T05:57:21.270Z,97435.41
2023-04-16T05:59:47.860Z,97433.22
2023-04-16T06:02:14.687Z,97444.28
2023-04-16T06:04:41.378Z,97434.59
2023-04-16T06:07:08.015Z,97439.69
2023-04-16T06:09:34.603Z,97445.63
2023-04-16T06:12:01.353Z,97441.47
2023-04-16T06:14:27.959Z,97440.41
2023-04-16T06:16:54.744Z,97433.53
2023-04-16T06:19:21.335Z,97438.00
2023-04-16T06:21:47.987Z,97439.50
2023-04-16T06:24:14.655Z,97447.13
2023-04-16T06:26:41.228Z,97445.88
2023-04-16T06:29:08.116Z,97442.03
2023-04-16T06:31:34.848Z,97448.75
2023-04-16T06:34:01.454Z,97455.50
2023-04-16T06:36:29.225Z,97453.97
2023-04-16T06:38:56.694Z,97451.91
2023-04-16T06:41:25.723Z,97449.91
2023-04-16T06:43:52.556Z,97456.03
2023-04-16T06:46:19.221Z,97452.97
2023-04-16T06:48:45.950Z,97451.16
2023-04-16T06:51:13.294Z,97453.78
2023-04-16T06:53:40.037Z,97464.78
2023-04-16T06:56:07.225Z,97459.00
2023-04-16T06:58:34.029Z,97463.94
2023-04-16T07:01:01.165Z,97466.50
2023-04-16T07:03:27.946Z,97458.38
2023-04-16T07:05:54.710Z,97468.63
2023-04-16T07:08:21.303Z,97455.78
2023-04-16T07:10:47.903Z,97461.06
2023-04-16T07:13:14.968Z,97464.09
2023-04-16T07:15:41.546Z,97478.13
2023-04-16T07:18:08.444Z,97466.03
2023-04-16T07:20:36.213Z,97475.41
2023-04-16T07:23:02.852Z,97469.59
2023-04-16T07:25:29.838Z,97472.03
2023-04-16T07:27:56.922Z,97484.03
2023-04-16T07:30:23.599Z,97483.50
2023-04-16T07:32:51.640Z,97486.41
2023-04-16T07:35:18.281Z,97486.94
2023-04-16T07:37:45.046Z,97488.59
2023-04-16T07:40:12.025Z,97505.09
2023-04-16T07:42:38.643Z,97506.03
2023-04-16T07:45:05.742Z,97499.25
2023-04-16T07:47:32.383Z,97500.38
2023-04-16T07:49:58.996Z,97500.22
2023-04-16T07:52:26.680Z,97504.94
2023-04-16T07:54:53.605Z,97501.75
2023-04-16T07:57:21.313Z,97505.16
2023-04-16T07:59:47.970Z,97506.44
2023-04-16T08:02:16.654Z,97502.81
2023-04-16T08:04:45.553Z,97509.19
2023-04-16T08:07:12.277Z,97511.09
2023-04-16T08:09:49.242Z,97514.22
2023-04-16T08:12:17.324Z,97521.13
2023-04-16T08:14:45.779Z,97522.34
2023-04-16T08:17:13.188Z,97516.31
2023-04-16T08:19:40.429Z,97518.41
2023-04-16T08:22:07.312Z,97519.19
2023-04-16T08:24:33.909Z,97526.63
2023-04-16T08:27:15.191Z,97518.47
2023-04-16T08:29:44.955Z,97514.56
2023-04-16T08:32:11.714Z,97514.44
2023-04-16T08:34:38.415Z,97510.41
2023-04-16T08:37:05.612Z,97518.81
2023-04-16T08:39:32.337Z,97519.44
2023-04-16T08:42:00.206Z,97518.63
2023-04-16T08:44:31.540Z,97527.28
2023-04-16T08:46:59.155Z,97521.53
2023-04-16T08:49:26.730Z,97527.28
2023-04-16T08:51:57.057Z,97533.91
2023-04-16T08:54:47.544Z,97539.06
2023-04-16T08:57:31.721Z,97545.97
2023-04-16T09:00:01.056Z,97544.03
2023-04-16T09:02:29.379Z,97543.78
2023-04-16T09:04:59.528Z,97549.56
2023-04-16T09:07:29.637Z,97549.97
2023-04-16T09:09:59.543Z,97549.00
2023-04-16T09:12:26.350Z,97551.25
2023-04-16T09:14:53.772Z,97545.38
2023-04-16T09:17:21.100Z,97547.28
2023-04-16T09:19:48.020Z,97536.66
2023-04-16T09:22:14.698Z,97541.06
2023-04-16T09:24:42.984Z,97543.78
2023-04-16T09:27:09.922Z,97549.50
2023-04-16T09:29:41.474Z,97544.28
2023-04-16T09:32:10.503Z,97535.97
2023-04-16T09:34:57.528Z,97548.91
2023-04-16T09:37:26.138Z,97544.25
2023-04-16T09:39:55.483Z,97537.25
2023-04-16T09:42:25.220Z,97539.31
2023-04-16T09:44:52.913Z,97536.31
2023-04-16T09:47:20.015Z,97537.06
2023-04-16T09:49:47.222Z,97539.75
2023-04-16T09:52:15.761Z,97535.13
2023-04-16T09:54:47.120Z,97537.13
2023-04-16T09:57:14.665Z,97533.56
2023-04-16T09:59:41.319Z,97535.56
2023-04-16T10:02:15.823Z,97525.78
2023-04-16T10:04:53.237Z,97531.56
2023-04-16T10:07:20.964Z,97534.13
2023-04-16T10:09:52.465Z,97528.59
2023-04-16T10:12:19.489Z,97531.56
2023-04-16T10:14:48.280Z,97522.66
2023-04-16T10:17:16.900Z,97520.81
2023-04-16T10:19:43.785Z,97524.75
2023-04-16T10:22:11.332Z,97518.84
2023-04-16T10:24:38.767Z,97516.28
2023-04-16T10:27:05.411Z,97512.16
2023-04-16T10:29:33.074Z,97507.66
2023-04-16T10:32:01.198Z,97514.97
2023-04-16T10:34:29.048Z,97510.59
2023-04-16T10:36:55.991Z,97516.84
2023-04-16T10:39:24.854Z,97508.72
2023-04-16T10:42:07.473Z,97515.81
2023-04-16T10:44:34.279Z,97508.00
2023-04-16T10:47:01.137Z,97508.91
2023-04-16T10:49:27.736Z,97499.91
2023-04-16T10:51:54.326Z,97496.00
2023-04-16T10:54:25.737Z,97497.69
2023-04-16T10:56:53.814Z,97494.16
2023-04-16T10:59:22.100Z,97491.06
2023-04-16T11:01:54.035Z,97492.94
2023-04-16T11:04:21.166Z,97486.91
2023-04-16T11:07:21.570Z,97490.69
2023-04-16T11:09:52.514Z,97488.75
2023-04-16T11:12:23.680Z,97488.50
2023-04-16T11:14:52.528Z,97490.28
2023-04-16T11:17:21.053Z,97493.69
2023-04-16T11:19:48.140Z,97486.91
2023-04-16T11:22:17.608Z,97487.16
2023-04-16T11:24:47.349Z,97481.66
2023-04-16T11:27:15.210Z,97486.06
2023-04-16T11:29:42.250Z,97482.06
2023-04-16T11:32:08.947Z,97488.06
2023-04-16T11:34:44.130Z,97487.00
2023-04-16T11:37:10.964Z,97478.38
2023-04-16T11:39:48.778Z,97484.91
2023-04-16T11:42:21.265Z,97486.31
2023-04-16T11:44:51.275Z,97474.06
2023-04-16T11:47:17.992Z,97472.47
2023-04-16T11:49:44.747Z,97474.25
2023-04-16T11:52:11.573Z,97478.94
2023-04-16T11:54:38.561Z,97474.66
2023-04-16T11:57:05.153Z,97475.84
2023-04-16T11:59:31.981Z,97468.47
2023-04-16T12:01:58.651Z,97478.00
2023-04-16T12:04:27.273Z,97468.50
2023-04-16T12:07:11.771Z,97471.78
2023-04-16T12:09:41.049Z,97471.00
2023-04-16T12:12:28.149Z,97470.16
2023-04-16T12:14:56.807Z,97472.97
2023-04-16T12:17:24.080Z,97467.34
2023-04-16T12:20:00.189Z,97469.28
2023-04-16T12:22:38.353Z,97473.47
2023-04-16T12:25:06.084Z,97473.72
2023-04-16T12:27:55.988Z,97471.91
2023-04-16T12:30:24.971Z,97465.16
2023-04-16T12:33:12.910Z,97467.81
2023-04-16T12:35:41.924Z,97468.97
2023-04-16T12:38:08.518Z,97465.13
2023-04-16T12:40:36.134Z,97463.72
2023-04-16T12:43:03.403Z,97463.94
2023-04-16T12:45:30.924Z,97460.81
2023-04-16T12:47:57.972Z,97462.50
2023-04-16T12:50:24.650Z,97456.56
2023-04-16T12:52:52.137Z,97458.91
2023-04-16T12:55:19.482Z,97465.50
2023-04-16T12:57:48.760Z,97461.19
2023-04-16T13:00:16.784Z,97461.38
2023-04-16T13:02:43.882Z,97460.69
2023-04-16T13:05:10.562Z,97464.78
2023-04-16T13:07:37.314Z,97460.03
2023-04-16T13:10:05.415Z,97462.19
2023-04-16T13:12:32.735Z,97450.22
2023-04-16T13:14:59.380Z,97446.75
2023-04-16T13:17:26.232Z,97455.25
2023-04-16T13:19:53.308Z,97468.63
2023-04-16T13:22:19.989Z,97459.69
2023-04-16T13:24:46.716Z,97461.19
2023-04-16T13:27:15.235Z,97465.97
2023-04-16T13:29:41.935Z,97470.13
2023-04-16T13:32:08.659Z,97463.84
2023-04-16T13:34:35.879Z,97469.09
2023-04-16T13:37:02.442Z,97479.28
2023-04-16T13:39:29.056Z,97473.59
2023-04-16T13:41:55.955Z,97476.34
2023-04-16T13:44:22.660Z,97480.50
2023-04-16T13:46:50.208Z,97476.44
2023-04-16T13:49:16.840Z,97478.09
2023-04-16T13:51:44.747Z,97476.41
2023-04-16T13:54:11.978Z,97482.09
2023-04-16T13:56:39.574Z,97490.53
2023-04-16T13:59:06.513Z,97488.41
2023-04-16T14:01:33.194Z,97491.19
2023-04-16T14:04:06.463Z,97494.13
2023-04-16T14:06:35.304Z,97493.50
2023-04-16T14:09:02.372Z,97489.28
2023-04-16T14:11:29.198Z,97493.91
2023-04-16T14:13:56.000Z,97502.13
2023-04-16T14:16:23.279Z,97493.31
2023-04-16T14:18:52.207Z,97490.94
2023-04-16T14:21:19.143Z,97487.28
2023-04-16T14:23:45.777Z,97481.53
2023-04-16T14:26:13.179Z,97488.84
2023-04-16T14:28:40.883Z,97493.50
2023-04-16T14:31:07.492Z,97481.06
2023-04-16T14:33:34.727Z,97488.88
2023-04-16T14:36:03.103Z,97485.78
2023-04-16T14:38:31.187Z,97486.50
2023-04-16T14:40:58.111Z,97488.28
2023-04-16T14:43:24.742Z,97491.88
2023-04-16T14:45:52.878Z,97489.09
2023-04-16T14:48:20.019Z,97483.06
2023-04-16T14:50:46.684Z,97483.06
2023-04-16T14:53:13.724Z,97494.00
2023-04-16T14:55:40.632Z,97492.94
2023-04-16T14:58:07.433Z,97486.00
2023-04-16T15:00:37.005Z,97488.16
2023-04-16T15:03:04.317Z,97491.56
2023-04-16T15:05:32.243Z,97493.22
2023-04-16T15:07:58.865Z,97497.38
2023-04-16T15:10:27.068Z,97494.09
2023-04-16T15:12:53.887Z,97500.66
2023-04-16T15:15:21.367Z,97504.81
2023-04-16T15:17:48.270Z,97504.00
2023-04-16T15:20:15.283Z,97507.38
2023-04-16T15:22:43.435Z,97505.50
2023-04-16T15:25:10.627Z,97514.41
2023-04-16T15:27:37.792Z,97511.91
2023-04-16T15:30:07.071Z,97519.38
2023-04-16T15:32:34.964Z,97513.28
2023-04-16T15:35:04.212Z,97512.50
2023-04-16T15:37:31.462Z,97518.19
2023-04-16T15:39:59.030Z,97523.38
2023-04-16T15:42:25.989Z,97520.88
2023-04-16T15:44:52.629Z,97527.38
2023-04-16T15:47:19.250Z,97535.78
2023-04-16T15:49:45.873Z,97533.66
2023-04-16T15:52:13.103Z,97541.72
2023-04-16T15:54:41.735Z,97543.81
2023-04-16T15:57:09.256Z,97544.19
2023-04-16T15:59:35.919Z,97542.84
2023-04-16T16:02:02.766Z,97541.56
2023-04-16T16:04:29.764Z,97549.47
2023-04-16T16:06:56.642Z,97549.53
2023-04-16T16:09:26.636Z,97554.53
2023-04-16T16:11:54.778Z,97559.03
2023-04-16T16:14:22.908Z,97554.59
2023-04-16T16:16:49.777Z,97561.22
2023-04-16T16:19:18.530Z,97564.31
2023-04-16T16:21:45.390Z,97570.94
2023-04-16T16:24:12.142Z,97566.78
2023-04-16T16:26:39.506Z,97559.91
2023-04-16T16:29:07.643Z,97568.06
2023-04-16T16:31:34.366Z,97569.09
2023-04-16T16:34:01.163Z,97569.38
2023-04-16T16:36:28.377Z,97570.09
2023-04-16T16:38:55.611Z,97571.06
2023-04-16T16:41:22.500Z,97573.53
2023-04-16T16:43:50.236Z,97574.22
2023-04-16T16:46:16.893Z,97571.91
2023-04-16T16:48:43.487Z,97577.03
2023-04-16T16:51:11.041Z,97570.53
2023-04-16T16:53:38.527Z,97573.31
2023-04-16T16:56:05.721Z,97576.09
2023-04-16T16:58:32.294Z,97572.38
2023-04-16T17:00:59.105Z,97578.31
2023-04-16T17:03:26.152Z,97580.53
2023-04-16T17:05:52.787Z,97576.53
2023-04-16T17:08:19.438Z,97587.19
2023-04-16T17:10:46.073Z,97586.75
2023-04-16T17:13:13.694Z,97583.03
2023-04-16T17:15:40.580Z,97585.00
2023-04-16T17:18:07.213Z,97583.31
2023-04-16T17:20:33.905Z,97592.72
2023-04-16T17:23:00.704Z,97584.44
2023-04-16T17:25:27.315Z,97586.91
2023-04-16T17:27:53.899Z,97590.34
2023-04-16T17:30:21.265Z,97592.94
2023-04-16T17:32:47.835Z,97597.88
2023-04-16T17:35:14.579Z,97595.25
2023-04-16T17:37:41.172Z,97607.78
2023-04-16T17:40:08.304Z,97602.63
2023-04-16T17:42:35.734Z,97601.97
2023-04-16T17:45:03.306Z,97603.53
2023-04-16T17:47:29.904Z,97611.50
2023-04-16T17:49:56.590Z,97608.38
2023-04-16T17:52:23.305Z,97608.31
2023-04-16T17:54:49.939Z,97616.88
2023-04-16T17:57:16.868Z,97614.97
2023-04-16T17:59:43.517Z,97624.44
2023-04-16T18:02:10.286Z,97628.69
2023-04-16T18:04:37.073Z,97627.00
2023-04-16T18:07:03.900Z,97619.28
2023-04-16T18:09:31.330Z,97630.81
2023-04-16T18:11:57.887Z,97624.69
2023-04-16T18:14:25.094Z,97639.00
2023-04-16T18:16:51.653Z,97642.97
2023-04-16T18:19:18.334Z,97640.03
2023-04-16T18:21:45.103Z,97644.47
2023-04-16T18:24:12.109Z,97646.50
2023-04-16T18:26:40.977Z,97647.22
2023-04-16T18:29:07.984Z,97653.69
2023-04-16T18:31:34.735Z,97646.50
2023-04-16T18:34:01.435Z,97651.72
2023-04-16T18:36:28.132Z,97667.72
2023-04-16T18:39:02.258Z,97660.09
2023-04-16T18:41:31.296Z,97662.72
2023-04-16T18:43:57.926Z,97665.19
2023-04-16T18:46:25.607Z,97662.00
2023-04-16T18:48:52.359Z,97672.38
2023-04-16T18:51:19.108Z,97673.19
2023-04-16T18:53:45.922Z,97668.22
2023-04-16T18:56:12.818Z,97671.31
2023-04-16T18:58:39.534Z,97674.28
2023-04-16T19:01:11.176Z,97664.19
2023-04-16T19:03:38.689Z,97658.16
2023-04-16T19:06:06.577Z,97658.22
2023-04-16T19:08:33.244Z,97669.66
2023-04-16T19:11:00.082Z,97662.88
2023-04-16T19:13:26.782Z,97669.91
2023-04-16T19:16:00.929Z,97667.16
2023-04-16T19:18:28.589Z,97663.13
2023-04-16T19:21:01.963Z,97664.66
2023-04-16T19:23:29.044Z,97667.75
2023-04-16T19:25:56.781Z,97662.53
2023-04-16T19:28:24.424Z,97665.84
2023-04-16T19:30:51.693Z,97669.19
2023-04-16T19:33:19.009Z,97661.22
2023-04-16T19:35:46.720Z,97670.59
2023-04-16T19:38:13.438Z,97662.75
2023-04-16T19:40:41.024Z,97663.94
2023-04-16T19:43:07.888Z,97669.91
2023-04-16T19:45:35.147Z,97667.53
2023-04-16T19:48:02.241Z,97660.41
2023-04-16T19:50:28.941Z,97659.69
2023-04-16T19:52:55.601Z,97664.41
2023-04-16T19:55:23.117Z,97668.59
2023-04-16T19:57:49.981Z,97667.25
2023-04-16T20:00:17.104Z,97662.66
2023-04-16T20:02:43.949Z,97653.00
2023-04-16T20:05:10.656Z,97657.53
2023-04-16T20:07:37.807Z,97665.13
2023-04-16T20:10:04.708Z,97662.66
2023-04-16T20:12:31.299Z,97661.41
2023-04-16T20:14:57.906Z,97665.59
2023-04-16T20:17:24.549Z,97668.22
2023-04-16T20:19:51.368Z,97659.13
2023-04-16T20:22:18.804Z,97661.75
2023-04-16T20:24:48.014Z,97658.44
2023-04-16T20:27:15.342Z,97656.22
2023-04-16T20:29:42.369Z,97658.41
2023-04-16T20:32:09.023Z,97652.94
2023-04-16T20:34:36.691Z,97654.56
2023-04-16T20:37:04.023Z,97649.06
2023-04-16T20:39:34.041Z,97641.63
2023-04-16T20:42:00.784Z,97641.50
2023-04-16T20:44:33.074Z,97644.00
2023-04-16T20:47:00.004Z,97630.31
2023-04-16T20:49:26.758Z,97632.06
2023-04-16T20:51:53.379Z,97634.41
2023-04-16T20:54:20.009Z,97632.00
2023-04-16T20:56:46.807Z,97628.84
2023-04-16T20:59:13.395Z,97622.06
2023-04-16T21:01:40.166Z,97623.16
2023-04-16T21:04:07.142Z,97625.72
2023-04-16T21:06:38.389Z,97628.63
2023-04-16T21:09:06.053Z,97626.00
2023-04-16T21:11:34.682Z,97626.28
2023-04-16T21:14:05.086Z,97628.72
2023-04-16T21:16:32.366Z,97625.88
2023-04-16T21:18:59.063Z,97636.53
2023-04-16T21:21:27.385Z,97637.63
2023-04-16T21:23:54.503Z,97633.25
2023-04-16T21:26:21.326Z,97624.16
2023-04-16T21:28:48.169Z,97628.84
2023-04-16T21:31:15.017Z,97632.44
2023-04-16T21:33:41.623Z,97623.47
2023-04-16T21:36:08.360Z,97632.97
2023-04-16T21:38:34.954Z,97624.13
2023-04-16T21:41:02.076Z,97625.72
2023-04-16T21:43:32.256Z,97623.81
2023-04-16T21:45:59.693Z,97625.44
2023-04-16T21:48:27.047Z,97633.84
2023-04-16T21:51:06.188Z,97628.91
2023-04-16T21:53:33.455Z,97626.88
2023-04-16T21:56:00.283Z,97622.31
2023-04-16T21:58:26.957Z,97621.13
2023-04-16T22:00:54.118Z,97628.00
2023-04-16T22:03:30.283Z,97631.59
2023-04-16T22:06:00.882Z,97631.88
2023-04-16T22:08:31.069Z,97622.50
2023-04-16T22:11:02.261Z,97619.34
2023-04-16T22:13:32.161Z,97625.81
2023-04-16T22:16:02.570Z,97626.09
2023-04-16T22:18:32.860Z,97620.81
2023-04-16T22:20:59.920Z,97616.75
2023-04-16T22:23:26.578Z,97622.50
2023-04-16T22:25:54.731Z,97620.97
2023-04-16T22:28:21.698Z,97614.78
2023-04-16T22:30:48.450Z,97614.38
2023-04-16T22:33:15.193Z,97621.13
2023-04-16T22:35:42.080Z,97612.78
2023-04-16T22:38:08.753Z,97620.22
2023-04-16T22:40:35.355Z,97627.91
2023-04-16T22:43:01.934Z,97624.31
2023-04-16T22:45:28.576Z,97620.97
2023-04-16T22:47:55.278Z,97619.91
2023-04-16T22:50:23.153Z,97620.75
2023-04-16T22:52:49.845Z,97616.94
2023-04-16T22:55:16.772Z,97619.34
2023-04-16T22:57:43.378Z,97614.91
2023-04-16T23:00:15.866Z,97620.75
2023-04-16T23:02:43.080Z,97613.00
2023-04-16T23:05:10.847Z,97614.53
2023-04-16T23:07:37.492Z,97612.03
2023-04-16T23:10:04.382Z,97617.91
2023-04-16T23:12:31.010Z,97609.78
2023-04-16T23:14:58.348Z,97609.25
2023-04-16T23:17:25.056Z,97610.19
2023-04-16T23:19:51.703Z,97611.28
2023-04-16T23:22:18.400Z,97611.72
2023-04-16T23:24:45.015Z,97608.59
2023-04-16T23:27:11.620Z,97599.78
2023-04-16T23:29:38.197Z,97599.88
2023-04-16T23:32:06.001Z,97597.78
2023-04-16T23:34:32.594Z,97601.59
2023-04-16T23:36:59.178Z,97595.53
2023-04-16T23:39:26.195Z,97597.06
2023-04-16T23:41:52.782Z,97585.31
2023-04-16T23:44:19.396Z,97580.25
2023-04-16T23:46:46.167Z,97573.81
2023-04-16T23:49:12.952Z,97579.69
2023-04-16T23:51:39.774Z,97582.88
2023-04-16T23:54:06.529Z,97578.66
2023-04-16T23:56:33.123Z,97577.41
2023-04-16T23:58:59.778Z,97573.09
